createdAt,value
2018-02-18T00:01:13.981Z,0.30
2018-02-18T00:03:41.489Z,0.30
2018-02-18T00:06:09.736Z,0.30
2018-02-18T00:08:37.221Z,0.30
2018-02-18T00:11:05.486Z,0.30
2018-02-18T00:13:32.969Z,0.30
2018-02-18T00:16:00.469Z,0.30
2018-02-18T00:18:27.949Z,0.30
2018-02-18T00:20:55.431Z,0.20
2018-02-18T00:23:23.712Z,0.30
2018-02-18T00:25:51.962Z,0.30
2018-02-18T00:28:19.453Z,0.30
2018-02-18T00:30:46.941Z,0.30
2018-02-18T00:33:14.469Z,0.20
2018-02-18T00:35:41.944Z,0.20
2018-02-18T00:38:09.433Z,0.20
2018-02-18T00:40:36.929Z,0.10
2018-02-18T00:43:05.173Z,0.00
2018-02-18T00:45:32.685Z,0.00
2018-02-18T00:48:00.177Z,0.10
2018-02-18T00:50:27.661Z,0.10
2018-02-18T00:52:55.157Z,0.20
2018-02-18T00:55:23.009Z,0.20
2018-02-18T00:57:50.511Z,0.30
2018-02-18T01:00:17.993Z,0.20
2018-02-18T01:02:45.472Z,0.20
2018-02-18T01:05:13.739Z,0.20
2018-02-18T01:07:41.985Z,0.10
2018-02-18T01:10:09.485Z,0.10
2018-02-18T01:12:37.739Z,0.00
2018-02-18T01:15:05.217Z,0.00
2018-02-18T01:17:33.632Z,0.00
2018-02-18T01:20:01.110Z,0.00
2018-02-18T01:22:28.646Z,0.10
2018-02-18T01:24:56.122Z,0.10
2018-02-18T01:27:23.598Z,0.10
2018-02-18T01:29:51.089Z,0.10
2018-02-18T01:32:19.335Z,0.20
2018-02-18T01:34:46.834Z,0.20
2018-02-18T01:37:14.313Z,0.30
2018-02-18T01:39:41.830Z,0.30
2018-02-18T01:42:10.097Z,0.30
2018-02-18T01:44:38.341Z,0.10
2018-02-18T01:47:05.839Z,0.10
2018-02-18T01:49:34.094Z,-0.20
2018-02-18T01:52:01.577Z,-0.20
2018-02-18T01:54:29.837Z,-0.40
2018-02-18T01:56:57.316Z,-0.40
2018-02-18T01:59:24.817Z,-0.50
2018-02-18T02:01:52.298Z,-0.40
2018-02-18T02:04:19.777Z,-0.70
2018-02-18T02:06:48.041Z,-0.70
2018-02-18T02:09:15.526Z,-0.70
2018-02-18T02:11:43.027Z,-0.70
2018-02-18T02:14:10.509Z,-0.60
2018-02-18T02:16:38.001Z,-0.70
2018-02-18T02:19:05.498Z,-0.80
2018-02-18T02:21:33.002Z,-0.70
2018-02-18T02:24:01.270Z,-0.50
2018-02-18T02:26:29.521Z,-0.40
2018-02-18T02:28:57.003Z,-0.40
2018-02-18T02:31:25.270Z,-0.60
2018-02-18T02:33:53.030Z,-0.60
2018-02-18T02:36:21.146Z,-0.60
2018-02-18T02:38:48.625Z,-0.80
2018-02-18T02:41:16.131Z,-0.70
2018-02-18T02:56:48.777Z,0.10
2018-02-18T02:59:16.502Z,0.10
2018-02-18T03:01:43.977Z,0.00
2018-02-18T03:04:11.477Z,-0.20
2018-02-18T03:06:39.733Z,-0.40
2018-02-18T03:09:07.236Z,-0.40
2018-02-18T03:11:34.714Z,-0.30
2018-02-18T03:14:02.198Z,-0.40
2018-02-18T03:16:29.694Z,-0.50
2018-02-18T03:18:57.173Z,-0.40
2018-02-18T03:21:25.092Z,-0.40
2018-02-18T03:23:53.346Z,-0.50
2018-02-18T03:26:20.843Z,-0.50
2018-02-18T03:28:48.385Z,-0.50
2018-02-18T03:31:16.644Z,-0.40
2018-02-18T03:33:44.167Z,-0.50
2018-02-18T03:36:11.661Z,-0.50
2018-02-18T03:38:39.177Z,-0.50
2018-02-18T03:41:06.705Z,-0.40
2018-02-18T03:43:34.961Z,-0.20
2018-02-18T03:46:03.233Z,-0.30
2018-02-18T03:48:30.709Z,-0.30
2018-02-18T03:50:58.960Z,-0.40
2018-02-18T03:53:26.450Z,-0.40
2018-02-18T03:55:54.707Z,-0.70
2018-02-18T03:58:22.206Z,-0.70
2018-02-18T04:00:49.738Z,-0.80
2018-02-18T04:03:17.990Z,-0.70
2018-02-18T04:05:45.490Z,-0.70
2018-02-18T04:08:13.002Z,-0.80
2018-02-18T04:10:40.594Z,-0.90
2018-02-18T04:13:08.836Z,-0.80
2018-02-18T04:15:36.313Z,-0.90
2018-02-18T04:18:04.842Z,-0.70
2018-02-18T04:20:32.321Z,-0.70
2018-02-18T04:22:59.822Z,-0.60
2018-02-18T04:25:28.069Z,-0.90
2018-02-18T04:27:55.986Z,-0.90
2018-02-18T04:30:24.734Z,-1.30
2018-02-18T04:32:52.214Z,-1.30
2018-02-18T04:35:19.717Z,-1.20
2018-02-18T04:37:47.193Z,-1.00
2018-02-18T04:40:15.439Z,-1.00
2018-02-18T04:42:42.929Z,-1.00
2018-02-18T04:45:10.405Z,-1.00
2018-02-18T04:47:38.674Z,-1.00
2018-02-18T04:50:06.153Z,-1.00
2018-02-18T04:52:33.706Z,-1.10
2018-02-18T04:55:01.965Z,-0.90
2018-02-18T04:57:30.217Z,-0.90
2018-02-18T04:59:57.726Z,-0.90
2018-02-18T05:02:25.213Z,-0.80
2018-02-18T05:04:52.694Z,-0.80
2018-02-18T05:07:20.189Z,-0.90
2018-02-18T05:09:48.434Z,-1.00
2018-02-18T05:12:15.937Z,-1.00
2018-02-18T05:14:43.412Z,-1.00
2018-02-18T05:17:10.893Z,-1.10
2018-02-18T05:19:38.385Z,-1.10
2018-02-18T05:22:06.625Z,-1.00
2018-02-18T05:24:34.127Z,-1.00
2018-02-18T05:27:02.368Z,-1.10
2018-02-18T05:29:31.357Z,-1.20
2018-02-18T05:31:58.850Z,-1.30
2018-02-18T05:34:27.091Z,-1.20
2018-02-18T05:36:56.093Z,-1.20
2018-02-18T05:39:23.669Z,-1.20
2018-02-18T05:41:51.918Z,-1.50
2018-02-18T05:44:19.420Z,-1.50
2018-02-18T05:46:46.894Z,-1.40
2018-02-18T05:49:14.418Z,-1.40
2018-02-18T05:51:42.665Z,-1.40
2018-02-18T05:54:10.162Z,-1.40
2018-02-18T05:56:37.657Z,-1.30
2018-02-18T05:59:05.137Z,-1.30
2018-02-18T06:01:33.401Z,-1.40
2018-02-18T06:04:00.877Z,-1.40
2018-02-18T06:06:28.357Z,-1.40
2018-02-18T06:08:56.628Z,-1.30
2018-02-18T06:11:24.876Z,-1.40
2018-02-18T06:13:52.386Z,-1.40
2018-02-18T06:16:19.862Z,-1.40
2018-02-18T06:18:47.393Z,-1.40
2018-02-18T06:21:14.939Z,-1.50
2018-02-18T06:23:43.234Z,-1.70
2018-02-18T06:26:10.732Z,-1.70
2018-02-18T06:28:38.209Z,-1.70
2018-02-18T06:31:05.697Z,-1.80
2018-02-18T06:33:33.958Z,-1.90
2018-02-18T06:36:02.233Z,-1.90
2018-02-18T06:38:30.492Z,-1.90
2018-02-18T06:40:57.969Z,-1.90
2018-02-18T06:43:26.253Z,-1.60
2018-02-18T06:45:53.805Z,-1.60
2018-02-18T06:48:22.053Z,-1.40
2018-02-18T06:50:49.565Z,-1.40
2018-02-18T06:53:17.045Z,-1.30
2018-02-18T06:55:44.517Z,-1.20
2018-02-18T06:58:12.042Z,-1.10
2018-02-18T07:00:39.510Z,-0.90
2018-02-18T07:03:07.278Z,-0.80
2018-02-18T07:05:34.766Z,-0.90
2018-02-18T07:08:02.245Z,-0.80
2018-02-18T07:10:30.522Z,-1.00
2018-02-18T07:12:58.764Z,-1.00
2018-02-18T07:15:26.269Z,-1.00
2018-02-18T07:17:53.752Z,-0.70
2018-02-18T07:20:21.234Z,-0.50
2018-02-18T07:22:48.729Z,-0.30
2018-02-18T07:25:16.974Z,-0.40
2018-02-18T07:27:44.484Z,-0.40
2018-02-18T07:30:11.970Z,-0.40
2018-02-18T07:32:39.452Z,-0.60
2018-02-18T07:35:06.962Z,-0.80
2018-02-18T07:37:34.446Z,-0.90
2018-02-18T07:40:01.953Z,-1.10
2018-02-18T07:42:30.198Z,-1.20
2018-02-18T07:44:57.686Z,-1.20
2018-02-18T07:47:25.949Z,-1.20
2018-02-18T07:49:54.198Z,-1.00
2018-02-18T07:52:21.698Z,-1.00
2018-02-18T07:54:49.946Z,-0.70
2018-02-18T07:57:17.444Z,-0.70
2018-02-18T07:59:44.961Z,-0.70
2018-02-18T08:02:12.442Z,-1.00
2018-02-18T08:04:40.710Z,-0.50
2018-02-18T08:07:08.957Z,-0.50
2018-02-18T08:09:36.457Z,-0.50
2018-02-18T08:12:03.934Z,-0.40
2018-02-18T08:14:31.417Z,-0.30
2018-02-18T08:16:59.165Z,-0.30
2018-02-18T08:19:26.645Z,-0.30
2018-02-18T08:21:54.146Z,-0.30
2018-02-18T08:24:22.388Z,-0.20
2018-02-18T08:26:49.890Z,-0.20
2018-02-18T08:29:17.384Z,-0.20
2018-02-18T08:31:44.866Z,-0.10
2018-02-18T08:34:12.441Z,0.20
2018-02-18T08:36:40.685Z,0.60
2018-02-18T08:39:08.166Z,0.60
2018-02-18T08:41:36.430Z,0.70
2018-02-18T08:44:03.917Z,0.70
2018-02-18T08:46:31.426Z,0.90
2018-02-18T08:48:59.173Z,1.00
2018-02-18T08:51:26.694Z,1.10
2018-02-18T08:53:54.949Z,1.40
2018-02-18T08:56:23.221Z,1.60
2018-02-18T08:58:50.718Z,1.50
2018-02-18T09:01:18.257Z,1.90
2018-02-18T09:03:46.572Z,2.50
2018-02-18T09:06:14.094Z,2.50
2018-02-18T09:08:42.337Z,3.30
2018-02-18T09:11:09.826Z,3.20
2018-02-18T09:13:38.070Z,3.70
2018-02-18T09:16:05.558Z,3.70
2018-02-18T09:18:33.797Z,4.60
2018-02-18T09:21:01.301Z,4.60
2018-02-18T09:23:29.545Z,5.30
2018-02-18T09:25:57.046Z,5.30
2018-02-18T09:28:24.529Z,5.40
2018-02-18T09:30:52.018Z,5.30
2018-02-18T09:33:19.513Z,5.30
2018-02-18T09:35:47.302Z,5.60
2018-02-18T09:38:14.785Z,5.40
2018-02-18T09:40:43.104Z,4.90
2018-02-18T09:43:10.549Z,4.90
2018-02-18T09:45:38.790Z,5.10
2018-02-18T09:48:06.337Z,5.10
2018-02-18T09:50:33.792Z,5.40
2018-02-18T09:53:01.268Z,5.50
2018-02-18T09:55:28.761Z,5.40
2018-02-18T09:57:56.245Z,5.70
2018-02-18T10:00:23.734Z,5.90
2018-02-18T10:02:51.217Z,6.00
2018-02-18T10:05:19.477Z,5.80
2018-02-18T10:07:46.965Z,5.80
2018-02-18T10:10:14.449Z,5.90
2018-02-18T10:12:41.970Z,6.00
2018-02-18T10:15:10.436Z,6.30
2018-02-18T10:17:37.931Z,6.30
2018-02-18T10:20:05.470Z,5.90
2018-02-18T10:22:33.714Z,4.10
2018-02-18T10:25:01.206Z,4.10
2018-02-18T10:27:29.569Z,2.80
2018-02-18T10:29:57.838Z,2.80
2018-02-18T10:32:25.321Z,2.80
2018-02-18T10:34:53.117Z,2.80
2018-02-18T10:37:20.676Z,2.70
2018-02-18T10:39:48.437Z,2.60
2018-02-18T10:42:15.934Z,2.40
2018-02-18T10:44:43.410Z,2.30
2018-02-18T10:47:11.655Z,2.30
2018-02-18T10:49:39.171Z,2.30
2018-02-18T10:52:07.466Z,2.30
2018-02-18T10:54:35.698Z,2.30
2018-02-18T10:57:03.945Z,2.10
2018-02-18T10:59:31.425Z,2.10
2018-02-18T11:01:59.710Z,2.10
2018-02-18T11:04:27.954Z,2.20
2018-02-18T11:06:55.536Z,2.20
2018-02-18T11:09:23.777Z,2.40
2018-02-18T11:11:51.254Z,2.40
2018-02-18T11:14:18.745Z,2.30
2018-02-18T11:16:46.222Z,2.10
2018-02-18T11:19:13.718Z,2.20
2018-02-18T11:21:41.197Z,2.20
2018-02-18T11:24:09.438Z,2.40
2018-02-18T11:26:36.933Z,2.40
2018-02-18T11:29:05.458Z,2.20
2018-02-18T11:31:32.946Z,2.20
2018-02-18T11:34:00.428Z,2.10
2018-02-18T11:36:28.685Z,2.10
2018-02-18T11:38:56.270Z,2.10
2018-02-18T11:41:23.749Z,2.20
2018-02-18T11:43:51.461Z,2.20
2018-02-18T11:46:18.945Z,2.20
2018-02-18T11:48:47.211Z,2.50
2018-02-18T11:51:15.465Z,2.40
2018-02-18T11:53:42.950Z,2.40
2018-02-18T11:56:11.218Z,2.20
2018-02-18T11:58:39.498Z,2.40
2018-02-18T12:01:07.758Z,2.40
2018-02-18T12:03:35.244Z,2.40
2018-02-18T12:06:02.799Z,2.20
2018-02-18T12:08:31.042Z,2.40
2018-02-18T12:10:58.545Z,2.40
2018-02-18T12:13:26.119Z,2.50
2018-02-18T12:15:53.638Z,2.40
2018-02-18T12:18:21.924Z,2.40
2018-02-18T12:20:50.174Z,2.40
2018-02-18T12:23:17.685Z,2.30
2018-02-18T12:25:45.178Z,2.00
2018-02-18T12:28:12.650Z,2.30
2018-02-18T12:30:40.220Z,2.50
2018-02-18T12:33:08.461Z,2.20
2018-02-18T12:35:35.934Z,2.20
2018-02-18T12:38:03.425Z,2.30
2018-02-18T12:40:30.898Z,2.00
2018-02-18T12:42:58.533Z,2.00
2018-02-18T12:45:26.786Z,2.00
2018-02-18T12:47:54.269Z,2.00
2018-02-18T12:50:22.521Z,1.70
2018-02-18T12:52:50.346Z,1.70
2018-02-18T12:55:17.865Z,2.00
2018-02-18T12:57:46.122Z,2.20
2018-02-18T13:00:13.662Z,2.20
2018-02-18T13:02:41.158Z,2.20
2018-02-18T13:05:09.399Z,2.00
2018-02-18T13:07:36.892Z,2.00
2018-02-18T13:10:05.132Z,2.10
2018-02-18T13:12:32.670Z,2.10
2018-02-18T13:15:00.154Z,2.00
2018-02-18T13:17:27.662Z,2.00
2018-02-18T13:19:55.153Z,1.90
2018-02-18T13:22:22.628Z,1.90
2018-02-18T13:24:50.353Z,1.80
2018-02-18T13:27:17.839Z,1.70
2018-02-18T13:29:45.339Z,1.70
2018-02-18T13:32:13.129Z,1.70
2018-02-18T13:34:40.622Z,1.80
2018-02-18T13:37:08.112Z,1.80
2018-02-18T13:39:36.358Z,1.80
2018-02-18T13:42:03.832Z,1.80
2018-02-18T13:44:32.102Z,1.60
2018-02-18T13:47:00.354Z,1.70
2018-02-18T13:49:27.830Z,1.60
2018-02-18T13:51:55.436Z,1.60
2018-02-18T13:54:22.983Z,1.40
2018-02-18T13:56:50.537Z,1.40
2018-02-18T13:59:18.101Z,1.40
2018-02-18T14:01:45.577Z,1.40
2018-02-18T14:04:13.079Z,1.40
2018-02-18T14:06:40.562Z,1.40
2018-02-18T14:09:08.099Z,1.40
2018-02-18T14:11:36.373Z,1.30
2018-02-18T14:14:04.773Z,1.20
2018-02-18T14:16:32.226Z,1.20
2018-02-18T14:18:59.733Z,1.10
2018-02-18T14:21:27.234Z,1.10
2018-02-18T14:23:55.477Z,0.90
2018-02-18T14:26:22.961Z,0.90
2018-02-18T14:28:51.222Z,0.80
2018-02-18T14:31:18.945Z,0.80
2018-02-18T14:33:46.441Z,0.90
2018-02-18T14:36:13.913Z,0.90
2018-02-18T14:38:42.193Z,1.00
2018-02-18T14:54:53.893Z,0.90
2018-02-18T14:57:23.774Z,0.90
2018-02-18T14:59:52.021Z,1.10
2018-02-18T15:02:19.518Z,1.10
2018-02-18T15:04:48.041Z,1.20
2018-02-18T15:07:15.527Z,1.20
2018-02-18T15:09:43.026Z,1.30
2018-02-18T15:12:10.822Z,1.30
2018-02-18T15:14:39.158Z,1.30
2018-02-18T15:17:07.457Z,1.40
2018-02-18T15:32:37.446Z,2.80
2018-02-18T15:35:04.926Z,2.70
2018-02-18T15:37:32.421Z,2.30
2018-02-18T15:39:59.898Z,2.10
2018-02-18T15:42:27.374Z,2.00
2018-02-18T15:44:54.925Z,1.90
2018-02-18T15:47:23.165Z,1.50
2018-02-18T15:49:50.663Z,1.50
2018-02-18T15:52:18.178Z,1.40
2018-02-18T15:54:45.656Z,1.40
2018-02-18T15:57:13.225Z,1.40
2018-02-18T15:59:41.469Z,1.30
2018-02-18T16:02:09.137Z,1.30
2018-02-18T16:04:36.721Z,1.20
2018-02-18T16:07:04.965Z,1.30
2018-02-18T16:09:32.706Z,1.30
2018-02-18T16:12:00.198Z,1.30
2018-02-18T16:14:27.741Z,1.30
2018-02-18T16:16:55.222Z,1.30
2018-02-18T16:19:22.698Z,1.30
2018-02-18T16:21:50.334Z,1.30
2018-02-18T16:24:18.635Z,1.20
2018-02-18T16:26:46.904Z,1.10
2018-02-18T16:29:15.154Z,1.20
2018-02-18T16:31:43.477Z,1.20
2018-02-18T16:34:11.737Z,1.10
2018-02-18T16:36:39.997Z,1.10
2018-02-18T16:39:08.266Z,1.10
2018-02-18T16:41:35.842Z,1.10
2018-02-18T16:44:04.090Z,1.10
2018-02-18T16:46:31.590Z,1.10
2018-02-18T16:48:59.094Z,1.10
2018-02-18T16:51:26.599Z,1.10
2018-02-18T16:53:54.149Z,1.10
2018-02-18T16:56:22.525Z,1.10
2018-02-18T16:58:50.793Z,1.10
2018-02-18T17:01:19.165Z,1.10
2018-02-18T17:03:47.434Z,1.20
2018-02-18T17:06:16.424Z,1.20
2018-02-18T17:08:44.706Z,1.10
2018-02-18T17:11:12.283Z,1.10
2018-02-18T17:13:40.572Z,1.00
2018-02-18T17:16:08.156Z,1.00
2018-02-18T17:18:35.638Z,1.10
2018-02-18T17:21:03.172Z,1.10
2018-02-18T17:23:30.685Z,1.10
2018-02-18T17:25:58.939Z,1.20
2018-02-18T17:28:27.226Z,1.20
2018-02-18T17:30:55.521Z,1.20
2018-02-18T17:33:23.770Z,1.20
2018-02-18T17:35:51.282Z,1.20
2018-02-18T17:38:18.774Z,1.20
2018-02-18T17:40:46.277Z,1.20
2018-02-18T17:43:13.758Z,1.20
2018-02-18T17:45:41.248Z,1.20
2018-02-18T17:48:08.777Z,1.20
2018-02-18T17:50:36.250Z,1.20
2018-02-18T17:53:03.745Z,1.30
2018-02-18T17:55:31.218Z,1.20
2018-02-18T17:57:58.717Z,1.20
2018-02-18T18:00:26.218Z,1.30
2018-02-18T18:02:54.465Z,1.30
2018-02-18T18:05:21.963Z,1.30
2018-02-18T18:07:50.205Z,1.30
2018-02-18T18:10:17.677Z,1.30
2018-02-18T18:12:46.219Z,1.30
2018-02-18T18:15:13.742Z,1.30
2018-02-18T18:17:41.206Z,1.30
2018-02-18T18:20:08.682Z,1.30
2018-02-18T18:22:36.173Z,1.30
2018-02-18T18:25:03.672Z,1.30
2018-02-18T18:27:31.161Z,1.30
2018-02-18T18:29:58.669Z,1.40
2018-02-18T18:32:26.923Z,1.30
2018-02-18T18:34:54.409Z,1.30
2018-02-18T18:37:22.674Z,1.30
2018-02-18T18:39:50.922Z,1.40
2018-02-18T18:42:18.426Z,1.40
2018-02-18T18:44:45.918Z,1.40
2018-02-18T18:47:13.401Z,1.40
2018-02-18T18:49:40.895Z,1.40
2018-02-18T18:52:08.379Z,1.40
2018-02-18T18:54:35.869Z,1.40
2018-02-18T18:57:03.345Z,1.40
2018-02-18T18:59:31.613Z,1.30
2018-02-18T19:01:59.197Z,1.30
2018-02-18T19:04:27.498Z,1.40
2018-02-18T19:06:54.984Z,1.40
2018-02-18T19:09:22.465Z,1.40
2018-02-18T19:11:49.961Z,1.40
2018-02-18T19:14:17.538Z,1.40
2018-02-18T19:16:45.082Z,1.40
2018-02-18T19:19:12.653Z,1.40
2018-02-18T19:21:40.144Z,1.40
2018-02-18T19:24:07.693Z,1.40
2018-02-18T19:26:35.172Z,1.40
2018-02-18T19:29:03.450Z,1.50
2018-02-18T19:31:30.926Z,1.40
2018-02-18T19:33:59.178Z,1.40
2018-02-18T19:36:27.498Z,1.40
2018-02-18T19:38:55.038Z,1.40
2018-02-18T19:41:23.557Z,1.50
2018-02-18T19:43:51.042Z,1.50
2018-02-18T19:46:18.530Z,1.40
2018-02-18T19:48:46.793Z,1.50
2018-02-18T19:51:14.310Z,1.50
2018-02-18T19:53:41.829Z,1.40
2018-02-18T19:56:10.072Z,1.50
2018-02-18T19:58:37.553Z,1.50
2018-02-18T20:01:05.823Z,1.50
2018-02-18T20:03:34.074Z,1.50
2018-02-18T20:06:01.574Z,1.40
2018-02-18T20:08:29.053Z,1.50
2018-02-18T20:10:56.533Z,1.50
2018-02-18T20:13:24.388Z,1.50
2018-02-18T20:15:51.898Z,1.50
2018-02-18T20:18:20.301Z,1.40
2018-02-18T20:20:47.786Z,1.40
2018-02-18T20:23:15.270Z,1.40
2018-02-18T20:25:42.769Z,1.30
2018-02-18T20:28:10.248Z,1.40
2018-02-18T20:30:37.752Z,1.50
2018-02-18T20:33:05.234Z,1.40
2018-02-18T20:35:32.720Z,1.30
2018-02-18T20:38:00.259Z,1.40
2018-02-18T20:40:27.798Z,1.40
2018-02-18T20:42:56.063Z,1.40
2018-02-18T20:45:23.540Z,1.40
2018-02-18T20:47:51.802Z,1.40
2018-02-18T20:50:19.305Z,1.40
2018-02-18T20:52:46.787Z,1.40
2018-02-18T20:55:14.315Z,1.40
2018-02-18T20:57:41.796Z,1.40
2018-02-18T21:00:09.298Z,1.40
2018-02-18T21:02:37.545Z,1.40
2018-02-18T21:05:05.017Z,1.40
2018-02-18T21:07:32.548Z,1.40
2018-02-18T21:10:00.836Z,1.40
2018-02-18T21:12:28.342Z,1.40
2018-02-18T21:14:55.821Z,1.40
2018-02-18T21:17:23.298Z,1.40
2018-02-18T21:19:50.793Z,1.40
2018-02-18T21:22:19.073Z,1.40
2018-02-18T21:24:47.401Z,1.40
2018-02-18T21:27:14.889Z,1.30
2018-02-18T21:29:43.154Z,1.40
2018-02-18T21:32:10.653Z,1.40
2018-02-18T21:34:38.152Z,1.30
2018-02-18T21:37:06.731Z,1.30
2018-02-18T21:39:35.011Z,1.20
2018-02-18T21:42:02.485Z,1.20
2018-02-18T21:44:30.313Z,1.20
2018-02-18T21:46:57.802Z,1.20
2018-02-18T21:49:25.340Z,1.20
2018-02-18T21:51:52.794Z,1.30
2018-02-18T21:54:20.325Z,1.30
2018-02-18T21:56:48.027Z,1.30
2018-02-18T21:59:15.508Z,1.30
2018-02-18T22:01:43.782Z,1.20
2018-02-18T22:04:11.365Z,1.20
2018-02-18T22:06:38.976Z,1.30
2018-02-18T22:09:06.473Z,1.30
2018-02-18T22:11:33.962Z,1.20
2018-02-18T22:14:01.468Z,1.20
2018-02-18T22:16:28.954Z,1.20
2018-02-18T22:18:56.460Z,1.20
2018-02-18T22:21:23.941Z,1.20
2018-02-18T22:23:51.426Z,1.00
2018-02-18T22:26:18.932Z,0.90
2018-02-18T22:28:46.414Z,0.80
2018-02-18T22:31:13.913Z,0.80
2018-02-18T22:33:41.390Z,0.70
2018-02-18T22:36:08.889Z,0.70
2018-02-18T22:38:36.386Z,0.60
2018-02-18T22:41:03.881Z,0.50
2018-02-18T22:43:31.625Z,0.50
2018-02-18T22:45:59.106Z,0.50
2018-02-18T22:48:26.605Z,0.40
2018-02-18T22:50:54.870Z,0.30
2018-02-18T22:53:23.152Z,0.30
2018-02-18T22:55:51.418Z,0.40
2018-02-18T22:58:19.705Z,0.40
2018-02-18T23:00:47.958Z,0.50
2018-02-18T23:03:15.533Z,0.50
2018-02-18T23:05:49.457Z,0.60
2018-02-18T23:08:17.005Z,0.60
2018-02-18T23:10:49.202Z,0.70
2018-02-18T23:13:16.705Z,0.70
2018-02-18T23:15:44.225Z,0.70
2018-02-18T23:18:11.709Z,0.60
2018-02-18T23:20:51.052Z,0.50
2018-02-18T23:23:18.529Z,0.50
2018-02-18T23:25:46.809Z,0.40
2018-02-18T23:28:15.089Z,0.20
2018-02-18T23:30:43.340Z,0.10
2018-02-18T23:33:11.618Z,0.20
2018-02-18T23:35:39.203Z,0.20
2018-02-18T23:38:07.474Z,0.30
2018-02-18T23:40:35.721Z,0.40
2018-02-18T23:43:03.201Z,0.30
2018-02-18T23:45:31.457Z,0.50
2018-02-18T23:47:58.938Z,0.40
2018-02-18T23:50:27.237Z,0.50
2018-02-18T23:52:54.712Z,0.40
2018-02-18T23:55:22.193Z,0.40
2018-02-18T23:57:49.689Z,0.30
